Nearby METAR Reports

 

KBAX - Bad Axe, Michigan, USA
Distance from station: ESE 22mi, 35km
Updated: Wed, 21-Nov-2018 1:36am EST
Overcast
Overcast
 Wind from WSW
Wind: WSW 15 mph , 24 km/h, Gust: 26 mph , 43 km/h
Temperature: 32°F , 0°C
Wind Chill: 22°F , -6°C
Dew Point: 27°F , -3°C
Humidity: 80%
Barometer: 29.91 inHg , 1012.9 hPa
Clouds: Overcast
Visibility: 10 miles , 16 km
Cloud details: Overcast 2100 ft
2018/11/21 06:36 KBAX 210636Z AUTO 25013G23KT 10SM OVC021 00/M03 A2991 RMK AO2 T00031030
KFNT - Flint, Michigan, USA
Distance from station: SSW 68mi, 109km
Updated: Wed, 21-Nov-2018 12:53am EST
Overcast
Overcast
 Wind from WSW
Wind: WSW 13 mph , 20 km/h
Temperature: 32°F , 0°C
Wind Chill: 22°F , -6°C
Dew Point: 25°F , -4°C
Humidity: 75%
Barometer: 29.99 inHg , 1015.6 hPa
Clouds: Overcast
Visibility: 10 miles , 16 km
Cloud details: Overcast 2300 ft
2018/11/21 05:53 KFNT 210553Z AUTO 25011KT 10SM OVC023 00/M04 A2999 RMK AO2 SLP165 T00001044 10000 21011 56008
KMBS - Saginaw, Michigan, USA
Distance from station: SW 44mi, 70km
Updated: Wed, 21-Nov-2018 12:53am EST
Overcast
Overcast
 Wind from WSW
Wind: WSW 15 mph , 24 km/h
Temperature: 34°F , 1°C
Wind Chill: 24°F , -4°C
Dew Point: 27°F , -3°C
Humidity: 75%
Barometer: 29.96 inHg , 1014.6 hPa
Clouds: Overcast
Visibility: 10 miles , 16 km
Cloud details: Overcast 2200 ft
2018/11/21 05:53 KMBS 210553Z AUTO 25013KT 10SM OVC022 01/M03 A2996 RMK AO2 PK WND 25030/0500 SLP152 T00061028 10011 21011 56002
 
KDTW - Detroit/Wayne, Michigan, USA
Distance from station: SSE 117mi, 188km
Updated: Wed, 21-Nov-2018 12:53am EST
Overcast
Overcast
 Wind from WSW
Wind: WSW 15 mph , 24 km/h
Temperature: 34°F , 1°C
Wind Chill: 24°F , -4°C
Dew Point: 21°F , -6°C
Humidity: 60%
Barometer: 30.03 inHg , 1016.9 hPa
Clouds: Overcast
Visibility: 10 miles , 16 km
Cloud details: Mostly cloudy 6000 ft
Overcast 12000 ft
2018/11/21 05:53 KDTW 210553Z 24013KT 10SM BKN060 OVC120 01/M06 A3003 RMK AO2 SLP176 T00111061 10011 20000 56010
KP58 - Port Hope, Michigan, USA
Distance from station: ENE 30mi, 48km
Updated: Wed, 21-Nov-2018 1:51am EST

 Wind from W
Wind: W 10 mph , 17 km/h, Gust: 28 mph , 44 km/h
Temperature: 34°F , 1°C
Wind Chill: 26°F , -3°C
Dew Point: 25°F , -4°C
Humidity: 70%
Barometer: 29.90 inHg , 1012.5 hPa
2018/11/21 06:51 KP58 210651Z AUTO 28009G24KT 01/M04 A2990 RMK AO1 PK WND 27026/0606 SLP137 T00061044
KCFS - Caro/Tuscola, Michigan, USA
Distance from station: S 31mi, 50km
Updated: Wed, 21-Nov-2018 1:35am EST
Overcast
Overcast
 Wind from W
Wind: W 14 mph , 22 km/h, Gust: 23 mph , 37 km/h
Temperature: 32°F , 0°C
Wind Chill: 22°F , -6°C
Dew Point: 28°F , -2°C
Humidity: 87%
Barometer: 29.95 inHg , 1014.2 hPa
Clouds: Overcast
Visibility: 10 miles , 16 km
Cloud details: Overcast 2200 ft
2018/11/21 06:35 KCFS 210635Z AUTO 26012G20KT 10SM OVC022 00/M02 A2995 RMK AO2 T00031025
 
KPHN - Port Huron, Michigan, USA
Distance from station: SSE 81mi, 131km
Updated: Wed, 21-Nov-2018 1:35am EST
Overcast
Overcast
 Wind from WSW
Wind: WSW 6 mph , 9 km/h
Temperature: 34°F , 1°C
Wind Chill: 29°F , -2°C
Dew Point: 23°F , -5°C
Humidity: 65%
Barometer: 29.98 inHg , 1015.2 hPa
Clouds: Overcast
Visibility: 10 miles , 16 km
Cloud details: Overcast 2900 ft
2018/11/21 06:35 KPHN 210635Z AUTO 24005KT 10SM OVC029 01/M05 A2998 RMK AO2
KPTK - Pontiac, Michigan, USA
Distance from station: S 86mi, 138km
Updated: Wed, 21-Nov-2018 12:53am EST
Overcast
Overcast
 Wind from WSW
Wind: WSW 17 mph , 28 km/h, Gust: 30 mph , 48 km/h
Temperature: 30°F , -1°C
Wind Chill: 18°F , -8°C
Dew Point: 21°F , -6°C
Humidity: 69%
Barometer: 29.98 inHg , 1015.2 hPa
Clouds: Overcast
Visibility: 10 miles , 16 km
Cloud details: Mostly cloudy 2800 ft
Overcast 3400 ft
2018/11/21 05:53 KPTK 210553Z AUTO 25015G26KT 10SM BKN028 OVC034 M01/M06 A2998 RMK AO2 PK WND 25026/0544 SLP163 T10061056 10000 21017 56002
KMTC - Selfridge Angb, Michigan, USA
Distance from station: SSE 94mi, 151km
Updated: Wed, 21-Nov-2018 1:41am EST
Overcast
Overcast
 Wind from WSW
Wind: WSW 15 mph , 24 km/h
Temperature: 34°F , 1°C
Wind Chill: 24°F , -4°C
Dew Point: 25°F , -4°C
Humidity: 70%
Barometer: 29.99 inHg , 1015.6 hPa
Clouds: Overcast
Visibility: 10 miles , 16 km
Cloud details: Mostly cloudy 2900 ft
Overcast 3500 ft
2018/11/21 06:41 KMTC 210641Z AUTO 25013KT 10SM BKN029 OVC035 01/M04 A2999 RMK AO2 CIG 029V034 SLP167 $